createdAt,value
2022-11-02T05:00:30.095Z,1010.48
2022-11-02T05:01:30.278Z,1010.33
2022-11-02T05:02:30.219Z,1010.41
2022-11-02T05:03:30.011Z,1010.45
2022-11-02T05:04:29.993Z,1010.36
2022-11-02T05:05:29.981Z,1010.40
2022-11-02T05:06:29.986Z,1010.37
2022-11-02T05:07:29.959Z,1010.36
2022-11-02T05:08:29.951Z,1010.34
2022-11-02T05:09:29.945Z,1010.21
2022-11-02T05:10:29.974Z,1010.23
2022-11-02T05:11:34.953Z,1010.29
2022-11-02T05:12:29.901Z,1010.23
2022-11-02T05:13:29.893Z,1010.28
2022-11-02T05:14:30.032Z,1010.28
2022-11-02T05:15:29.871Z,1010.29
2022-11-02T05:16:29.892Z,1010.30
2022-11-02T05:17:29.847Z,1010.30
2022-11-02T05:18:29.835Z,1010.36
2022-11-02T05:19:29.824Z,1010.30
2022-11-02T05:20:29.811Z,1010.26
2022-11-02T05:21:29.813Z,1010.35
2022-11-02T05:22:34.815Z,1010.34
2022-11-02T05:23:29.783Z,1010.33
2022-11-02T05:24:29.765Z,1010.36
2022-11-02T05:25:29.810Z,1010.37
2022-11-02T05:26:29.837Z,1010.39
2022-11-02T05:27:29.735Z,1010.42
2022-11-02T05:28:29.720Z,1010.32
2022-11-02T05:29:29.710Z,1010.40
2022-11-02T05:30:29.701Z,1010.44
2022-11-02T05:31:29.699Z,1010.47
2022-11-02T05:32:29.700Z,1010.52
2022-11-02T05:33:34.703Z,1010.52
2022-11-02T05:34:29.652Z,1010.47
2022-11-02T05:35:29.641Z,1010.45
2022-11-02T05:36:29.643Z,1010.49
2022-11-02T05:37:29.619Z,1010.45
2022-11-02T05:38:29.680Z,1010.40
2022-11-02T05:39:29.599Z,1010.44
2022-11-02T05:40:29.583Z,1010.46
2022-11-02T05:41:29.591Z,1010.45
2022-11-02T05:42:29.563Z,1010.40
2022-11-02T05:43:29.557Z,1010.43
2022-11-02T05:44:34.571Z,1010.48
2022-11-02T05:45:29.529Z,1010.43
2022-11-02T05:46:29.529Z,1010.37
2022-11-02T05:47:29.510Z,1010.41
2022-11-02T05:48:29.513Z,1010.38
2022-11-02T05:49:29.485Z,1010.47
2022-11-02T05:50:29.470Z,1010.48
2022-11-02T05:51:29.476Z,1010.46
2022-11-02T05:52:29.446Z,1010.46
2022-11-02T05:53:29.440Z,1010.48
2022-11-02T05:54:29.441Z,1010.45
2022-11-02T05:55:34.437Z,1010.53
2022-11-02T05:56:29.410Z,1010.48
2022-11-02T05:57:29.407Z,1010.54
2022-11-02T05:58:29.393Z,1010.48
2022-11-02T05:59:29.370Z,1010.45
2022-11-02T06:00:29.356Z,1010.56
2022-11-02T06:01:29.420Z,1010.51
2022-11-02T06:02:29.333Z,1010.57
2022-11-02T06:03:29.323Z,1010.62
2022-11-02T06:04:29.333Z,1010.58
2022-11-02T06:05:29.388Z,1010.67
2022-11-02T06:06:34.391Z,1010.70
2022-11-02T06:07:29.277Z,1010.73
2022-11-02T06:08:29.269Z,1010.73
2022-11-02T06:09:29.259Z,1010.71
2022-11-02T06:10:29.245Z,1010.72
2022-11-02T06:11:29.246Z,1010.79
2022-11-02T06:12:29.220Z,1010.78
2022-11-02T06:13:29.212Z,1010.77
2022-11-02T06:14:29.197Z,1010.84
2022-11-02T06:15:29.186Z,1010.84
2022-11-02T06:16:29.190Z,1010.87
2022-11-02T06:17:34.186Z,1010.76
2022-11-02T06:18:29.153Z,1010.82
2022-11-02T06:19:29.146Z,1010.79
2022-11-02T06:20:29.152Z,1010.92
2022-11-02T06:21:29.204Z,1010.91
2022-11-02T06:22:29.105Z,1010.87
2022-11-02T06:23:29.109Z,1010.90
2022-11-02T06:24:29.085Z,1010.87
2022-11-02T06:25:29.072Z,1010.91
2022-11-02T06:26:29.077Z,1010.91
2022-11-02T06:27:29.050Z,1010.89
2022-11-02T06:28:34.060Z,1010.91
2022-11-02T06:29:29.032Z,1010.90
2022-11-02T06:30:29.020Z,1010.92
2022-11-02T06:31:29.015Z,1010.91
2022-11-02T06:32:28.996Z,1010.97
2022-11-02T06:33:28.983Z,1010.97
2022-11-02T06:34:28.981Z,1010.99
2022-11-02T06:35:28.959Z,1010.98
2022-11-02T06:36:28.980Z,1010.97
2022-11-02T06:37:28.941Z,1010.92
2022-11-02T06:38:28.926Z,1011.02
2022-11-02T06:39:34.064Z,1010.98
2022-11-02T06:40:28.908Z,1010.98
2022-11-02T06:41:28.902Z,1011.03
2022-11-02T06:42:28.889Z,1011.05
2022-11-02T06:43:28.867Z,1011.13
2022-11-02T06:44:28.862Z,1011.09
2022-11-02T06:45:28.846Z,1011.10
2022-11-02T06:46:28.847Z,1011.17
2022-11-02T06:47:28.826Z,1011.23
2022-11-02T06:48:34.630Z,1011.19
2022-11-02T06:49:29.802Z,1011.28
2022-11-02T06:50:33.821Z,1011.29
2022-11-02T06:51:28.791Z,1011.30
2022-11-02T06:52:28.784Z,1011.33
2022-11-02T06:53:28.753Z,1011.35
2022-11-02T06:54:28.743Z,1011.38
2022-11-02T06:55:28.732Z,1011.39
2022-11-02T06:56:28.737Z,1011.37
2022-11-02T06:57:28.708Z,1011.40
2022-11-02T06:58:28.702Z,1011.49
2022-11-02T06:59:28.685Z,1011.48
2022-11-02T07:00:28.792Z,1011.50
2022-11-02T07:01:33.930Z,1011.57
2022-11-02T07:02:28.726Z,1011.50
2022-11-02T07:03:28.675Z,1011.59
2022-11-02T07:04:28.646Z,1011.46
2022-11-02T07:05:28.631Z,1011.47
2022-11-02T07:06:28.636Z,1011.47
2022-11-02T07:07:28.607Z,1011.50
2022-11-02T07:08:28.665Z,1011.52
2022-11-02T07:09:28.579Z,1011.55
2022-11-02T07:10:28.628Z,1011.54
2022-11-02T07:11:28.560Z,1011.61
2022-11-02T07:12:33.563Z,1011.60
2022-11-02T07:13:28.529Z,1011.65
2022-11-02T07:14:28.531Z,1011.65
2022-11-02T07:15:28.505Z,1011.63
2022-11-02T07:16:28.510Z,1011.67
2022-11-02T07:17:32.132Z,1011.67
2022-11-02T07:18:28.484Z,1011.67
2022-11-02T07:19:28.463Z,1011.69
2022-11-02T07:20:28.563Z,1011.72
2022-11-02T07:21:28.448Z,1011.78
2022-11-02T07:22:28.430Z,1011.83
2022-11-02T07:23:33.471Z,1011.82
2022-11-02T07:24:28.403Z,1011.87
2022-11-02T07:25:28.396Z,1011.82
2022-11-02T07:26:28.418Z,1011.89
2022-11-02T07:27:28.367Z,1011.89
2022-11-02T07:28:28.358Z,1011.93
2022-11-02T07:29:28.358Z,1011.91
2022-11-02T07:30:28.438Z,1011.86
2022-11-02T07:31:28.344Z,1011.85
2022-11-02T07:32:28.314Z,1011.81
2022-11-02T07:33:28.299Z,1011.86
2022-11-02T07:34:33.329Z,1011.85
2022-11-02T07:35:28.275Z,1011.86
2022-11-02T07:36:28.277Z,1011.86
2022-11-02T07:37:28.252Z,1011.87
2022-11-02T07:38:28.246Z,1011.92
2022-11-02T07:39:28.268Z,1011.83
2022-11-02T07:40:28.310Z,1011.91
2022-11-02T07:41:28.287Z,1011.85
2022-11-02T07:42:28.221Z,1011.83
2022-11-02T07:43:28.186Z,1011.86
2022-11-02T07:44:28.181Z,1011.85
2022-11-02T07:45:33.203Z,1011.91
2022-11-02T07:46:28.182Z,1011.92
2022-11-02T07:47:28.143Z,1012.01
2022-11-02T07:48:28.130Z,1011.93
2022-11-02T07:49:28.117Z,1011.95
2022-11-02T07:50:28.107Z,1011.94
2022-11-02T07:51:28.106Z,1011.98
2022-11-02T07:52:28.085Z,1012.06
2022-11-02T07:53:28.076Z,1012.08
2022-11-02T07:54:28.062Z,1012.12
2022-11-02T07:55:28.072Z,1012.14
2022-11-02T07:56:33.079Z,1012.18
2022-11-02T07:57:28.034Z,1012.17
2022-11-02T07:58:28.020Z,1012.16
2022-11-02T07:59:28.005Z,1012.18
2022-11-02T08:00:27.997Z,1012.24
2022-11-02T08:01:28.052Z,1012.24
2022-11-02T08:02:28.053Z,1012.27
2022-11-02T08:03:28.089Z,1012.22
2022-11-02T08:04:27.958Z,1012.25
2022-11-02T08:05:27.978Z,1012.24
2022-11-02T08:06:27.927Z,1012.29
2022-11-02T08:07:32.951Z,1012.36
2022-11-02T08:08:27.906Z,1012.30
2022-11-02T08:09:27.891Z,1012.39
2022-11-02T08:10:27.885Z,1012.35
2022-11-02T08:11:27.886Z,1012.41
2022-11-02T08:12:27.869Z,1012.39
2022-11-02T08:13:32.755Z,1012.42
2022-11-02T08:14:28.841Z,1012.37
2022-11-02T08:15:27.821Z,1012.35
2022-11-02T08:16:27.814Z,1012.37
2022-11-02T08:17:27.819Z,1012.39
2022-11-02T08:18:32.820Z,1012.37
2022-11-02T08:19:27.781Z,1012.50
2022-11-02T08:20:27.772Z,1012.43
2022-11-02T08:21:27.756Z,1012.47
2022-11-02T08:22:27.768Z,1012.45
2022-11-02T08:23:27.752Z,1012.47
2022-11-02T08:24:27.725Z,1012.42
2022-11-02T08:25:27.713Z,1012.46
2022-11-02T08:26:27.704Z,1012.53
2022-11-02T08:27:27.722Z,1012.54
2022-11-02T08:28:27.679Z,1012.47
2022-11-02T08:29:32.690Z,1012.54
2022-11-02T08:30:27.659Z,1012.49
2022-11-02T08:31:27.652Z,1012.48
2022-11-02T08:32:27.649Z,1012.48
2022-11-02T08:33:27.627Z,1012.50
2022-11-02T08:34:27.672Z,1012.48
2022-11-02T08:35:27.599Z,1012.46
2022-11-02T08:36:27.598Z,1012.57
2022-11-02T08:37:27.616Z,1012.48
2022-11-02T08:38:27.570Z,1012.54
2022-11-02T08:39:27.555Z,1012.60
2022-11-02T08:40:32.569Z,1012.54
2022-11-02T08:41:27.533Z,1012.54
2022-11-02T08:42:27.537Z,1012.53
2022-11-02T08:43:27.529Z,1012.52
2022-11-02T08:44:27.509Z,1012.53
2022-11-02T08:45:27.494Z,1012.57
2022-11-02T08:46:27.476Z,1012.54
2022-11-02T08:47:27.479Z,1012.54
2022-11-02T08:48:27.458Z,1012.50
2022-11-02T08:49:27.442Z,1012.58
2022-11-02T08:50:27.434Z,1012.58
2022-11-02T08:51:32.447Z,1012.57
2022-11-02T08:52:27.418Z,1012.62
2022-11-02T08:53:27.399Z,1012.55
2022-11-02T08:54:27.385Z,1012.57
2022-11-02T08:55:27.380Z,1012.52
2022-11-02T08:56:27.377Z,1012.60
2022-11-02T08:57:27.365Z,1012.54
2022-11-02T08:58:27.352Z,1012.52
2022-11-02T08:59:27.367Z,1012.53
2022-11-02T09:00:27.318Z,1012.56
2022-11-02T09:01:27.366Z,1012.59
2022-11-02T09:02:32.395Z,1012.56
2022-11-02T09:03:27.795Z,1012.66
2022-11-02T09:04:27.273Z,1012.61
2022-11-02T09:05:27.260Z,1012.62
2022-11-02T09:06:27.251Z,1012.63
2022-11-02T09:07:27.268Z,1012.58
2022-11-02T09:08:27.230Z,1012.64
2022-11-02T09:09:27.217Z,1012.62
2022-11-02T09:10:27.232Z,1012.69
2022-11-02T09:11:27.191Z,1012.65
2022-11-02T09:12:27.198Z,1012.66
2022-11-02T09:13:32.264Z,1012.63
2022-11-02T09:14:27.230Z,1012.63
2022-11-02T09:15:27.175Z,1012.65
2022-11-02T09:16:27.137Z,1012.70
2022-11-02T09:17:27.138Z,1012.66
2022-11-02T09:18:27.134Z,1012.61
2022-11-02T09:19:27.102Z,1012.65
2022-11-02T09:20:27.096Z,1012.67
2022-11-02T09:21:27.106Z,1012.67
2022-11-02T09:22:27.090Z,1012.62
2022-11-02T09:23:27.061Z,1012.59
2022-11-02T09:24:32.075Z,1012.63
2022-11-02T09:25:27.036Z,1012.60
2022-11-02T09:26:27.024Z,1012.47
2022-11-02T09:27:27.026Z,1012.62
2022-11-02T09:28:27.006Z,1012.59
2022-11-02T09:29:26.996Z,1012.62
2022-11-02T09:30:26.980Z,1012.64
2022-11-02T09:31:26.988Z,1012.62
2022-11-02T09:32:26.970Z,1012.66
2022-11-02T09:33:26.947Z,1012.73
2022-11-02T09:34:26.932Z,1012.64
2022-11-02T09:35:31.960Z,1012.70
2022-11-02T09:36:26.926Z,1012.63
2022-11-02T09:37:26.918Z,1012.63
2022-11-02T09:38:26.885Z,1012.65
2022-11-02T09:39:26.875Z,1012.65
2022-11-02T09:40:26.869Z,1012.69
2022-11-02T09:41:26.860Z,1012.57
2022-11-02T09:42:26.847Z,1012.66
2022-11-02T09:43:31.886Z,1012.64
2022-11-02T09:44:27.818Z,1012.70
2022-11-02T09:45:26.805Z,1012.63
2022-11-02T09:46:31.834Z,1012.67
2022-11-02T09:48:11.217Z,1012.65
2022-11-02T09:48:28.754Z,1012.68
2022-11-02T09:49:26.765Z,1012.64
2022-11-02T09:51:26.740Z,1012.67
2022-11-02T09:52:26.740Z,1012.58
2022-11-02T09:53:26.726Z,1012.66
2022-11-02T09:54:26.701Z,1012.58
2022-11-02T09:55:26.688Z,1012.61
2022-11-02T09:56:26.680Z,1012.62
2022-11-02T09:57:31.703Z,1012.61
2022-11-02T09:58:26.664Z,1012.62
2022-11-02T09:59:26.652Z,1012.65
2022-11-02T10:00:26.634Z,1012.66
2022-11-02T10:01:26.671Z,1012.64
2022-11-02T10:02:26.680Z,1012.65
2022-11-02T10:03:26.607Z,1012.68
2022-11-02T10:04:26.585Z,1012.66
2022-11-02T10:05:26.577Z,1012.68
2022-11-02T10:06:26.682Z,1012.65
2022-11-02T10:07:26.566Z,1012.63
2022-11-02T10:08:31.568Z,1012.57
2022-11-02T10:09:26.527Z,1012.64
2022-11-02T10:10:26.519Z,1012.62
2022-11-02T10:11:26.542Z,1012.58
2022-11-02T10:12:26.547Z,1012.57
2022-11-02T10:13:26.481Z,1012.65
2022-11-02T10:14:26.486Z,1012.62
2022-11-02T10:15:26.458Z,1012.64
2022-11-02T10:16:26.452Z,1012.69
2022-11-02T10:17:26.446Z,1012.66
2022-11-02T10:18:26.461Z,1012.70
2022-11-02T10:19:31.437Z,1012.64
2022-11-02T10:20:26.402Z,1012.64
2022-11-02T10:21:26.398Z,1012.63
2022-11-02T10:22:26.391Z,1012.64
2022-11-02T10:23:26.368Z,1012.59
2022-11-02T10:24:26.359Z,1012.61
2022-11-02T10:25:26.349Z,1012.54
2022-11-02T10:26:26.337Z,1012.58
2022-11-02T10:27:26.353Z,1012.51
2022-11-02T10:28:26.387Z,1012.57
2022-11-02T10:29:26.306Z,1012.61
2022-11-02T10:30:31.316Z,1012.67
2022-11-02T10:31:26.291Z,1012.59
2022-11-02T10:32:26.324Z,1012.65
2022-11-02T10:33:26.259Z,1012.65
2022-11-02T10:34:26.275Z,1012.52
2022-11-02T10:35:40.669Z,1012.66
2022-11-02T10:36:27.228Z,1012.63
2022-11-02T10:37:26.282Z,1012.63
2022-11-02T10:38:26.201Z,1012.69
2022-11-02T10:39:26.190Z,1012.65
2022-11-02T10:40:26.183Z,1012.57
2022-11-02T10:41:31.191Z,1012.63
2022-11-02T10:42:26.169Z,1012.54
2022-11-02T10:43:26.159Z,1012.56
2022-11-02T10:44:26.136Z,1012.61
2022-11-02T10:45:26.126Z,1012.58
2022-11-02T10:46:26.120Z,1012.57
2022-11-02T10:47:26.110Z,1012.57
2022-11-02T10:48:26.107Z,1012.61
2022-11-02T10:49:26.077Z,1012.59
2022-11-02T10:50:26.089Z,1012.60
2022-11-02T10:51:26.076Z,1012.64
2022-11-02T10:52:31.068Z,1012.64
2022-11-02T10:53:42.338Z,1012.65
2022-11-02T10:54:33.333Z,1012.71
2022-11-02T10:55:27.021Z,1012.63
2022-11-02T10:56:25.997Z,1012.60
2022-11-02T10:57:25.989Z,1012.65
2022-11-02T10:58:25.988Z,1012.68
2022-11-02T10:59:25.968Z,1012.70
2022-11-02T11:00:26.038Z,1012.69
2022-11-02T11:01:26.055Z,1012.71
2022-11-02T11:02:25.938Z,1012.69
2022-11-02T11:03:30.956Z,1012.67
2022-11-02T11:04:25.913Z,1012.72
2022-11-02T11:05:25.903Z,1012.66
2022-11-02T11:06:25.917Z,1012.69
2022-11-02T11:07:25.890Z,1012.65
2022-11-02T11:08:25.867Z,1012.65
2022-11-02T11:09:25.856Z,1012.68
2022-11-02T11:10:25.848Z,1012.63
2022-11-02T11:11:25.831Z,1012.64
2022-11-02T11:12:25.836Z,1012.51
2022-11-02T11:16:26.774Z,1012.59
2022-11-02T11:19:42.080Z,1012.61
2022-11-02T11:20:26.731Z,1012.58
2022-11-02T11:21:25.740Z,1012.62
2022-11-02T11:22:25.832Z,1012.59
2022-11-02T11:23:25.702Z,1012.54
2022-11-02T11:24:25.778Z,1012.55
2022-11-02T11:25:30.696Z,1012.47
2022-11-02T11:26:25.676Z,1012.46
2022-11-02T11:27:25.692Z,1012.59
2022-11-02T11:28:25.636Z,1012.48
2022-11-02T11:29:25.628Z,1012.54
2022-11-02T11:30:53.960Z,1012.45
2022-11-02T11:31:26.617Z,1012.57
2022-11-02T11:32:29.925Z,1012.46
2022-11-02T11:33:26.586Z,1012.47
2022-11-02T11:34:25.571Z,1012.48
2022-11-02T11:35:25.642Z,1012.47
2022-11-02T11:36:30.873Z,1012.45
2022-11-02T11:37:25.574Z,1012.49
2022-11-02T11:38:25.551Z,1012.44
2022-11-02T11:39:25.519Z,1012.39
2022-11-02T11:40:25.503Z,1012.39
2022-11-02T11:41:25.496Z,1012.36
2022-11-02T11:42:25.482Z,1012.31
2022-11-02T11:43:25.492Z,1012.36
2022-11-02T11:44:25.464Z,1012.39
2022-11-02T11:45:25.468Z,1012.32
2022-11-02T11:46:25.439Z,1012.41
2022-11-02T11:47:30.459Z,1012.37
2022-11-02T11:48:25.430Z,1012.39
2022-11-02T11:49:36.326Z,1012.33
2022-11-02T11:50:29.111Z,1012.41
2022-11-02T11:51:26.280Z,1012.42
2022-11-02T11:52:30.876Z,1012.45
2022-11-02T11:53:26.374Z,1012.43
2022-11-02T11:54:25.378Z,1012.42
2022-11-02T11:55:25.345Z,1012.44
2022-11-02T11:56:25.338Z,1012.45
2022-11-02T11:57:25.431Z,1012.33
2022-11-02T11:58:30.336Z,1012.43
2022-11-02T11:59:25.290Z,1012.32
2022-11-02T12:00:25.279Z,1012.38
2022-11-02T12:01:25.326Z,1012.37
2022-11-02T12:02:25.571Z,1012.34
2022-11-02T12:03:25.346Z,1012.38
2022-11-02T12:04:25.239Z,1012.33
2022-11-02T12:05:25.241Z,1012.23
2022-11-02T12:06:25.212Z,1012.24
2022-11-02T12:07:25.210Z,1012.20
2022-11-02T12:08:25.215Z,1012.19
2022-11-02T12:09:30.225Z,1012.22
2022-11-02T12:10:25.173Z,1012.18
2022-11-02T12:11:25.156Z,1012.23
2022-11-02T12:12:25.143Z,1012.20
2022-11-02T12:13:25.145Z,1012.20
2022-11-02T12:14:25.123Z,1012.18
2022-11-02T12:15:25.126Z,1012.15
2022-11-02T12:16:25.131Z,1012.09
2022-11-02T12:17:25.087Z,1012.10
2022-11-02T12:18:25.098Z,1012.17
2022-11-02T12:19:27.371Z,1012.16
2022-11-02T12:20:30.085Z,1012.11
2022-11-02T12:21:25.043Z,1012.11
2022-11-02T12:22:25.038Z,1012.07
2022-11-02T12:23:25.033Z,1012.07
2022-11-02T12:24:25.016Z,1012.14
2022-11-02T12:25:25.028Z,1012.14
2022-11-02T12:26:24.985Z,1012.13
2022-11-02T12:27:24.973Z,1012.07
2022-11-02T12:28:24.971Z,1012.17
2022-11-02T12:29:24.956Z,1012.09
2022-11-02T12:30:24.939Z,1012.08
2022-11-02T12:31:29.950Z,1012.13
2022-11-02T12:32:24.912Z,1012.15
2022-11-02T12:33:24.916Z,1012.13
2022-11-02T12:34:24.893Z,1012.14
2022-11-02T12:35:29.708Z,1012.19
2022-11-02T12:36:25.878Z,1012.09
2022-11-02T12:37:40.453Z,1012.13
2022-11-02T12:38:25.861Z,1012.17
2022-11-02T12:39:24.836Z,1012.14
2022-11-02T12:41:24.837Z,1012.12
2022-11-02T12:42:29.820Z,1012.17
2022-11-02T12:43:24.831Z,1012.10
2022-11-02T12:44:24.777Z,1012.13
2022-11-02T12:45:24.772Z,1012.13
2022-11-02T12:46:24.757Z,1012.01
2022-11-02T12:47:24.751Z,1012.16
2022-11-02T12:48:24.753Z,1012.06
2022-11-02T12:49:24.722Z,1012.08
2022-11-02T12:50:24.709Z,1011.97
2022-11-02T12:51:24.706Z,1012.03
2022-11-02T12:52:24.693Z,1012.02
2022-11-02T12:53:29.713Z,1011.96
2022-11-02T12:54:24.666Z,1011.94
2022-11-02T12:55:24.670Z,1012.01
2022-11-02T12:56:24.649Z,1012.05
2022-11-02T12:57:24.652Z,1011.96
2022-11-02T12:58:24.636Z,1011.93
2022-11-02T12:59:24.622Z,1011.94
2022-11-02T13:00:24.598Z,1011.97
2022-11-02T13:01:24.755Z,1011.92
2022-11-02T13:02:24.654Z,1011.97
2022-11-02T13:03:24.589Z,1011.95
2022-11-02T13:04:31.891Z,1011.94
2022-11-02T13:05:24.613Z,1011.94
2022-11-02T13:06:24.585Z,1011.96
2022-11-02T13:07:24.521Z,1011.92
2022-11-02T13:08:25.226Z,1011.90
2022-11-02T13:09:24.500Z,1011.98
2022-11-02T13:10:24.490Z,1011.98
2022-11-02T13:11:24.477Z,1011.93
2022-11-02T13:12:24.465Z,1011.99
2022-11-02T13:13:24.483Z,1012.00
2022-11-02T13:14:24.452Z,1011.92
2022-11-02T13:15:29.542Z,1011.98
2022-11-02T13:16:24.418Z,1011.91
2022-11-02T13:17:24.408Z,1011.82
2022-11-02T13:18:24.415Z,1011.88
2022-11-02T13:19:24.389Z,1011.83
2022-11-02T13:20:24.381Z,1011.81
2022-11-02T13:21:24.409Z,1011.78
2022-11-02T13:22:24.351Z,1011.78
2022-11-02T13:23:24.472Z,1011.83
2022-11-02T13:24:27.869Z,1011.86
2022-11-02T13:25:25.334Z,1011.86
2022-11-02T13:26:29.336Z,1011.83
2022-11-02T13:27:35.817Z,1011.86
2022-11-02T13:28:25.296Z,1011.82
2022-11-02T13:29:24.292Z,1011.77
2022-11-02T13:30:24.274Z,1011.82
2022-11-02T13:31:24.249Z,1011.86
2022-11-02T13:32:24.992Z,1011.79
2022-11-02T13:33:24.244Z,1011.78
2022-11-02T13:34:24.217Z,1011.76
2022-11-02T13:35:24.204Z,1011.75
2022-11-02T13:36:24.214Z,1011.81
2022-11-02T13:37:29.212Z,1011.79
2022-11-02T13:38:24.224Z,1011.78
2022-11-02T13:39:24.159Z,1011.78
2022-11-02T13:40:24.148Z,1011.76
2022-11-02T13:41:24.140Z,1011.72
2022-11-02T13:42:24.131Z,1011.75
2022-11-02T13:43:24.130Z,1011.81
2022-11-02T13:44:24.113Z,1011.77
2022-11-02T13:45:24.183Z,1011.78
2022-11-02T13:46:24.079Z,1011.76
2022-11-02T13:47:24.080Z,1011.72
2022-11-02T13:48:29.098Z,1011.73
2022-11-02T13:49:24.047Z,1011.72
2022-11-02T13:50:24.031Z,1011.77
2022-11-02T13:51:24.026Z,1011.77
2022-11-02T13:52:24.013Z,1011.67
2022-11-02T13:53:24.006Z,1011.79
2022-11-02T13:54:24.011Z,1011.68
2022-11-02T13:55:23.979Z,1011.72
2022-11-02T13:56:23.965Z,1011.71
2022-11-02T13:57:23.958Z,1011.70
2022-11-02T13:58:23.954Z,1011.67
2022-11-02T13:59:28.983Z,1011.73
2022-11-02T14:00:23.919Z,1011.72
2022-11-02T14:01:24.030Z,1011.71
2022-11-02T14:02:24.054Z,1011.68
2022-11-02T14:03:23.888Z,1011.70
2022-11-02T14:04:23.894Z,1011.67
2022-11-02T14:05:23.868Z,1011.67
2022-11-02T14:06:23.853Z,1011.71
2022-11-02T14:07:23.844Z,1011.69
2022-11-02T14:08:23.832Z,1011.70
2022-11-02T14:09:23.839Z,1011.63
2022-11-02T14:10:28.833Z,1011.64
2022-11-02T14:11:23.798Z,1011.64
2022-11-02T14:12:23.784Z,1011.70
2022-11-02T14:13:23.776Z,1011.70
2022-11-02T14:14:23.772Z,1011.66
2022-11-02T14:15:23.757Z,1011.63
2022-11-02T14:16:23.759Z,1011.71
2022-11-02T14:17:23.756Z,1011.66
2022-11-02T14:18:23.716Z,1011.65
2022-11-02T14:19:23.720Z,1011.67
2022-11-02T14:20:23.694Z,1011.63
2022-11-02T14:21:28.719Z,1011.58
2022-11-02T14:22:23.678Z,1011.54
2022-11-02T14:23:23.663Z,1011.59
2022-11-02T14:24:23.667Z,1011.59
2022-11-02T14:25:23.648Z,1011.56
2022-11-02T14:26:23.636Z,1011.58
2022-11-02T14:27:23.620Z,1011.57
2022-11-02T14:28:23.608Z,1011.52
2022-11-02T14:29:23.608Z,1011.51
2022-11-02T14:30:23.584Z,1011.51
2022-11-02T14:31:23.574Z,1011.50
2022-11-02T14:32:28.608Z,1011.53
2022-11-02T14:33:23.564Z,1011.50
2022-11-02T14:34:23.550Z,1011.49
2022-11-02T14:35:23.536Z,1011.57
2022-11-02T14:36:23.516Z,1011.58
2022-11-02T14:37:23.511Z,1011.58
2022-11-02T14:38:23.504Z,1011.51
2022-11-02T14:39:23.483Z,1011.54
2022-11-02T14:40:23.481Z,1011.58
2022-11-02T14:41:23.469Z,1011.57
2022-11-02T14:42:23.452Z,1011.59
2022-11-02T14:43:28.467Z,1011.55
2022-11-02T14:44:23.442Z,1011.45
2022-11-02T14:45:23.465Z,1011.49
2022-11-02T14:46:23.406Z,1011.53
2022-11-02T14:47:23.409Z,1011.54
2022-11-02T14:48:23.399Z,1011.49
2022-11-02T14:49:23.371Z,1011.51
2022-11-02T14:50:23.381Z,1011.45
2022-11-02T14:51:23.347Z,1011.45
2022-11-02T14:52:23.335Z,1011.47
2022-11-02T14:53:23.328Z,1011.41
2022-11-02T14:54:28.360Z,1011.39
2022-11-02T14:55:23.320Z,1011.35
2022-11-02T14:56:23.340Z,1011.37
2022-11-02T14:57:23.286Z,1011.32
2022-11-02T14:58:23.267Z,1011.38
2022-11-02T14:59:23.259Z,1011.34
2022-11-02T15:00:23.254Z,1011.32
2022-11-02T15:01:23.237Z,1011.30
2022-11-02T15:02:23.228Z,1011.35
2022-11-02T15:03:23.237Z,1011.37
2022-11-02T15:04:23.220Z,1011.43
2022-11-02T15:05:28.221Z,1011.37
2022-11-02T15:06:23.182Z,1011.43
2022-11-02T15:07:23.164Z,1011.45
2022-11-02T15:08:23.156Z,1011.43
2022-11-02T15:09:23.144Z,1011.43
2022-11-02T15:10:23.152Z,1011.41
2022-11-02T15:11:23.135Z,1011.41
2022-11-02T15:12:23.112Z,1011.33
2022-11-02T15:13:23.097Z,1011.30
2022-11-02T15:14:23.087Z,1011.29
2022-11-02T15:15:23.095Z,1011.31
2022-11-02T15:16:28.110Z,1011.28
2022-11-02T15:17:23.060Z,1011.29
2022-11-02T15:18:23.049Z,1011.26
2022-11-02T15:19:23.030Z,1011.23
2022-11-02T15:20:23.052Z,1011.25
2022-11-02T15:21:23.007Z,1011.23
2022-11-02T15:22:22.996Z,1011.31
2022-11-02T15:23:30.639Z,1011.27
2022-11-02T15:24:23.971Z,1011.28
2022-11-02T15:25:22.975Z,1011.27
2022-11-02T15:26:22.950Z,1011.28
2022-11-02T15:27:27.963Z,1011.27
2022-11-02T15:28:22.930Z,1011.34
2022-11-02T15:29:22.917Z,1011.29
2022-11-02T15:30:28.036Z,1011.31
2022-11-02T15:31:26.294Z,1011.26
2022-11-02T15:32:23.207Z,1011.24
2022-11-02T15:33:22.869Z,1011.25
2022-11-02T15:34:22.871Z,1011.21
2022-11-02T15:35:22.849Z,1011.20
2022-11-02T15:36:22.884Z,1011.21
2022-11-02T15:37:22.826Z,1011.16
2022-11-02T15:38:32.612Z,1011.12
2022-11-02T15:39:23.801Z,1011.10
2022-11-02T15:40:22.801Z,1011.14
2022-11-02T15:41:22.791Z,1011.12
2022-11-02T15:42:22.787Z,1011.08
2022-11-02T15:43:22.757Z,1011.10
2022-11-02T15:44:22.751Z,1011.09
2022-11-02T15:46:23.738Z,1011.13
2022-11-02T15:47:22.717Z,1011.15
2022-11-02T15:48:22.701Z,1011.22
2022-11-02T15:49:27.717Z,1011.19
2022-11-02T15:50:22.678Z,1011.10
2022-11-02T15:51:22.679Z,1011.11
2022-11-02T15:52:22.675Z,1011.12
2022-11-02T15:53:23.979Z,1011.04
2022-11-02T15:54:22.632Z,1011.18
2022-11-02T15:55:22.618Z,1011.19
2022-11-02T15:56:22.628Z,1011.07
2022-11-02T15:57:22.596Z,1011.16
2022-11-02T15:58:22.586Z,1011.11
2022-11-02T15:59:22.582Z,1011.08
2022-11-02T16:00:27.589Z,1011.06
2022-11-02T16:01:22.783Z,1011.06
2022-11-02T16:02:22.687Z,1011.05
2022-11-02T16:03:22.529Z,1011.12
2022-11-02T16:04:22.530Z,1011.08
2022-11-02T16:05:22.631Z,1011.08
2022-11-02T16:06:22.535Z,1011.06
2022-11-02T16:07:24.014Z,1011.08
2022-11-02T16:08:22.913Z,1011.13
2022-11-02T16:09:22.462Z,1011.14
2022-11-02T16:10:22.460Z,1011.13
2022-11-02T16:11:27.479Z,1011.14
2022-11-02T16:12:22.427Z,1011.12
2022-11-02T16:13:22.418Z,1011.13
2022-11-02T16:14:22.403Z,1011.17
2022-11-02T16:15:22.429Z,1011.12
2022-11-02T16:16:22.406Z,1011.11
2022-11-02T16:17:22.370Z,1011.11
2022-11-02T16:18:22.360Z,1011.11
2022-11-02T16:19:22.350Z,1011.08
2022-11-02T16:20:22.340Z,1011.05
2022-11-02T16:21:22.336Z,1011.03
2022-11-02T16:22:27.336Z,1010.94
2022-11-02T16:23:22.300Z,1011.00
2022-11-02T16:24:22.326Z,1011.00
2022-11-02T16:25:22.310Z,1010.99
2022-11-02T16:26:22.334Z,1010.99
2022-11-02T16:27:22.308Z,1010.97
2022-11-02T16:28:22.247Z,1011.00
2022-11-02T16:29:22.233Z,1010.96
2022-11-02T16:30:22.227Z,1010.96
2022-11-02T16:31:22.234Z,1011.00
2022-11-02T16:32:22.209Z,1011.00
2022-11-02T16:33:27.217Z,1011.01
2022-11-02T16:34:22.180Z,1011.01
2022-11-02T16:35:22.200Z,1011.00
2022-11-02T16:36:22.165Z,1011.08
2022-11-02T16:37:22.143Z,1010.97
2022-11-02T16:38:22.134Z,1011.00
2022-11-02T16:39:22.131Z,1010.99
2022-11-02T16:40:22.195Z,1010.95
2022-11-02T16:41:22.108Z,1010.91
2022-11-02T16:42:22.087Z,1010.94
2022-11-02T16:43:22.107Z,1010.86
2022-11-02T16:44:27.088Z,1010.88
2022-11-02T16:45:22.160Z,1010.95
2022-11-02T16:46:22.060Z,1010.94
2022-11-02T16:47:22.035Z,1011.03
2022-11-02T16:48:22.024Z,1010.96
2022-11-02T16:49:22.012Z,1010.99
2022-11-02T16:50:21.997Z,1010.97
2022-11-02T16:51:21.996Z,1011.09
2022-11-02T16:52:21.980Z,1010.98
2022-11-02T16:53:21.961Z,1011.00
2022-11-02T16:54:21.963Z,1010.97
2022-11-02T16:55:26.976Z,1010.98
2022-11-02T16:56:21.946Z,1010.92
2022-11-02T16:57:21.914Z,1010.87
2022-11-02T16:58:21.904Z,1010.87
2022-11-02T16:59:21.897Z,1010.86
2022-11-02T17:00:21.902Z,1010.92
2022-11-02T17:01:22.040Z,1010.84
2022-11-02T17:02:21.925Z,1010.87
2022-11-02T17:03:21.852Z,1010.90
2022-11-02T17:04:21.841Z,1010.87
2022-11-02T17:05:21.825Z,1010.92
2022-11-02T17:06:26.844Z,1010.86
2022-11-02T17:07:21.815Z,1010.84
2022-11-02T17:08:21.793Z,1010.86
2022-11-02T17:09:21.781Z,1010.85
2022-11-02T17:10:21.777Z,1010.89
2022-11-02T17:11:21.777Z,1010.82
2022-11-02T17:12:21.773Z,1010.86
2022-11-02T17:13:22.266Z,1010.84